createdAt,value
2019-02-27T00:00:31.198Z,24.50
2019-02-27T00:03:03.033Z,26.30
2019-02-27T00:05:34.794Z,23.47
2019-02-27T00:08:07.162Z,29.40
2019-02-27T00:10:39.290Z,26.37
2019-02-27T00:13:11.623Z,28.93
2019-02-27T00:15:43.412Z,29.93
2019-02-27T00:18:15.195Z,29.63
2019-02-27T00:20:46.942Z,31.90
2019-02-27T00:23:18.810Z,31.53
2019-02-27T00:25:50.550Z,24.43
2019-02-27T00:28:23.336Z,30.53
2019-02-27T00:30:55.701Z,26.70
2019-02-27T00:33:28.683Z,35.00
2019-02-27T00:36:00.619Z,29.80
2019-02-27T00:38:32.353Z,25.40
2019-02-27T00:41:04.084Z,25.23
2019-02-27T00:43:35.959Z,18.07
2019-02-27T00:46:07.613Z,29.67
2019-02-27T00:48:39.327Z,24.23
2019-02-27T00:51:12.918Z,23.73
2019-02-27T00:53:44.757Z,23.63
2019-02-27T00:56:16.477Z,24.00
2019-02-27T00:58:48.231Z,24.17
2019-02-27T01:01:20.010Z,27.43
2019-02-27T01:03:51.663Z,23.47
2019-02-27T01:06:23.526Z,24.10
2019-02-27T01:08:55.253Z,21.23
2019-02-27T01:11:26.925Z,22.07
2019-02-27T01:13:58.593Z,28.87
2019-02-27T01:16:30.314Z,27.50
2019-02-27T01:19:02.273Z,31.13
2019-02-27T01:21:35.479Z,27.13
2019-02-27T01:24:07.166Z,28.30
2019-02-27T01:26:38.837Z,24.67
2019-02-27T01:29:11.803Z,29.13
2019-02-27T01:31:43.553Z,29.43
2019-02-27T01:34:15.307Z,33.30
2019-02-27T01:36:46.965Z,23.03
2019-02-27T01:39:18.636Z,30.90
2019-02-27T01:41:50.321Z,28.83
2019-02-27T01:44:22.103Z,21.97
2019-02-27T01:46:54.668Z,26.10
2019-02-27T01:49:26.651Z,27.73
2019-02-27T01:51:59.211Z,25.30
2019-02-27T01:54:31.839Z,24.97
2019-02-27T01:57:03.632Z,27.20
2019-02-27T01:59:35.607Z,29.17
2019-02-27T02:02:07.309Z,27.20
2019-02-27T02:04:39.086Z,27.37
2019-02-27T02:07:10.944Z,27.43
2019-02-27T02:09:43.856Z,28.73
2019-02-27T02:12:27.825Z,24.90
2019-02-27T02:15:33.873Z,31.60
2019-02-27T02:18:41.506Z,26.20
2019-02-27T02:21:39.187Z,25.53
2019-02-27T02:24:37.016Z,22.73
2019-02-27T02:27:49.624Z,26.73
2019-02-27T02:31:20.775Z,23.50
2019-02-27T02:34:22.182Z,24.83
2019-02-27T02:37:33.725Z,27.47
2019-02-27T02:40:47.286Z,29.13
2019-02-27T02:43:46.888Z,30.27
2019-02-27T02:46:30.312Z,25.40
2019-02-27T02:49:22.933Z,26.53
2019-02-27T02:52:25.970Z,24.13
2019-02-27T02:55:32.279Z,26.30
2019-02-27T02:58:15.542Z,30.50
2019-02-27T03:01:16.500Z,24.33
2019-02-27T03:04:12.464Z,29.83
2019-02-27T03:07:11.286Z,27.23
2019-02-27T03:10:09.425Z,25.73
2019-02-27T03:13:12.438Z,32.83
2019-02-27T03:15:49.190Z,29.83
2019-02-27T03:19:05.039Z,15.60
2019-02-27T03:21:45.542Z,27.40
2019-02-27T03:25:10.715Z,27.77
2019-02-27T03:28:06.971Z,23.97
2019-02-27T03:30:57.835Z,27.40
2019-02-27T03:34:25.785Z,25.57
2019-02-27T03:37:27.499Z,28.67
2019-02-27T03:40:39.272Z,24.27
2019-02-27T03:44:01.354Z,32.33
2019-02-27T03:46:48.547Z,30.63
2019-02-27T03:50:22.439Z,26.03
2019-02-27T03:53:38.652Z,29.07
2019-02-27T03:57:03.639Z,31.83
2019-02-27T04:00:09.853Z,26.27
2019-02-27T04:02:58.148Z,30.57
2019-02-27T04:06:11.456Z,23.43
2019-02-27T04:08:56.660Z,24.10
2019-02-27T04:11:29.539Z,27.80
2019-02-27T04:14:04.728Z,27.93
2019-02-27T04:16:37.995Z,29.37
2019-02-27T04:19:09.107Z,26.60
2019-02-27T04:21:40.797Z,31.50
2019-02-27T04:24:12.473Z,33.00
2019-02-27T04:26:44.180Z,31.83
2019-02-27T04:29:15.907Z,27.67
2019-02-27T04:31:47.588Z,28.17
2019-02-27T04:34:19.343Z,27.37
2019-02-27T04:36:51.603Z,36.77
2019-02-27T04:39:23.293Z,26.77
2019-02-27T04:41:54.982Z,29.87
2019-02-27T04:44:26.657Z,23.77
2019-02-27T04:46:58.437Z,30.07
2019-02-27T04:49:30.176Z,62.33
2019-02-27T04:52:01.881Z,51.17
2019-02-27T04:54:35.021Z,45.90
2019-02-27T04:57:06.804Z,45.23
2019-02-27T04:59:38.506Z,42.30
2019-02-27T05:02:12.060Z,44.60
2019-02-27T05:04:43.590Z,30.97
2019-02-27T05:07:15.346Z,39.43
2019-02-27T05:09:47.079Z,42.60
2019-02-27T05:12:18.796Z,34.30
2019-02-27T05:14:50.495Z,31.43
2019-02-27T05:17:22.196Z,34.93
2019-02-27T05:19:53.954Z,26.23
2019-02-27T05:22:26.799Z,24.20
2019-02-27T05:24:59.195Z,22.43
2019-02-27T05:27:30.937Z,21.50
2019-02-27T05:30:02.648Z,20.20
2019-02-27T05:32:34.384Z,16.80
2019-02-27T05:35:06.078Z,20.20
2019-02-27T05:37:39.149Z,19.30
2019-02-27T05:40:11.146Z,16.53
2019-02-27T05:42:42.852Z,16.27
2019-02-27T05:45:14.540Z,20.10
2019-02-27T05:47:46.314Z,15.47
2019-02-27T05:50:17.982Z,18.13
2019-02-27T05:52:49.730Z,12.17
2019-02-27T05:55:22.052Z,18.47
2019-02-27T05:57:53.858Z,24.93
2019-02-27T06:00:25.535Z,16.53
2019-02-27T06:02:57.309Z,19.70
2019-02-27T06:05:28.982Z,15.73
2019-02-27T06:08:02.209Z,15.23
2019-02-27T06:10:34.046Z,13.57
2019-02-27T06:13:05.734Z,12.90
2019-02-27T06:15:37.412Z,20.30
2019-02-27T06:18:09.076Z,14.17
2019-02-27T06:20:41.855Z,13.47
2019-02-27T06:23:14.280Z,11.87
2019-02-27T06:25:46.032Z,17.03
2019-02-27T06:28:18.814Z,18.43
2019-02-27T06:30:51.219Z,11.30
2019-02-27T06:33:22.959Z,14.97
2019-02-27T06:35:54.650Z,19.33
2019-02-27T06:38:26.313Z,15.30
2019-02-27T06:40:59.391Z,17.63
2019-02-27T06:43:31.194Z,15.50
2019-02-27T06:46:02.994Z,17.93
2019-02-27T06:48:34.735Z,22.43
2019-02-27T06:51:06.510Z,24.27
2019-02-27T06:53:38.253Z,20.20
2019-02-27T06:56:10.034Z,11.97
2019-02-27T06:58:41.824Z,16.13
2019-02-27T07:01:13.605Z,16.20
2019-02-27T07:03:45.317Z,16.23
2019-02-27T07:06:21.261Z,20.17
2019-02-27T07:08:50.533Z,14.67
2019-02-27T07:11:22.248Z,20.10
2019-02-27T07:13:54.067Z,11.93
2019-02-27T07:16:25.739Z,13.50
2019-02-27T07:18:57.415Z,16.70
2019-02-27T07:21:32.562Z,18.40
2019-02-27T07:24:02.556Z,16.57
2019-02-27T07:26:34.267Z,15.33
2019-02-27T07:29:10.144Z,15.27
2019-02-27T07:31:41.926Z,27.00
2019-02-27T07:34:14.377Z,26.43
2019-02-27T07:36:46.671Z,16.43
2019-02-27T07:39:18.723Z,20.48
2019-02-27T07:41:52.851Z,17.47
2019-02-27T07:44:24.549Z,24.67
2019-02-27T07:46:57.450Z,12.13
2019-02-27T07:49:30.861Z,16.42
2019-02-27T07:52:04.506Z,19.07
2019-02-27T07:54:36.337Z,15.90
2019-02-27T07:57:08.271Z,16.52
2019-02-27T07:59:39.962Z,12.88
2019-02-27T08:02:11.646Z,13.20
2019-02-27T08:04:43.319Z,15.68
2019-02-27T08:07:15.009Z,11.57
2019-02-27T08:09:46.879Z,15.53
2019-02-27T08:12:19.996Z,12.13
2019-02-27T08:14:52.561Z,13.78
2019-02-27T08:17:24.242Z,16.32
2019-02-27T08:19:56.039Z,9.50
2019-02-27T08:22:27.872Z,18.20
2019-02-27T08:24:59.607Z,14.38
2019-02-27T08:27:31.338Z,13.60
2019-02-27T08:30:03.140Z,15.43
2019-02-27T08:32:35.299Z,14.68
2019-02-27T08:35:07.222Z,13.80
2019-02-27T08:37:39.102Z,14.25
2019-02-27T08:40:10.804Z,12.25
2019-02-27T08:42:42.620Z,11.50
2019-02-27T08:45:19.665Z,12.85
2019-02-27T08:47:48.016Z,13.13
2019-02-27T08:50:19.755Z,13.83
2019-02-27T08:52:51.857Z,15.23
2019-02-27T08:55:24.150Z,15.30
2019-02-27T08:57:57.026Z,13.10
2019-02-27T09:00:30.014Z,12.58
2019-02-27T09:03:02.939Z,15.15
2019-02-27T09:05:35.486Z,18.05
2019-02-27T09:08:09.737Z,13.03
2019-02-27T09:10:40.634Z,16.27
2019-02-27T09:13:12.401Z,13.95
2019-02-27T09:15:44.139Z,17.65
2019-02-27T09:18:15.904Z,12.03
2019-02-27T09:20:47.675Z,9.23
2019-02-27T09:23:19.479Z,17.27
2019-02-27T09:25:57.050Z,17.60
2019-02-27T09:28:24.730Z,14.47
2019-02-27T09:30:57.027Z,14.53
2019-02-27T09:33:29.144Z,15.93
2019-02-27T09:36:00.932Z,13.65
2019-02-27T09:38:32.651Z,14.23
2019-02-27T09:41:04.534Z,13.28
2019-02-27T09:43:36.205Z,14.50
2019-02-27T09:46:07.959Z,13.45
2019-02-27T09:48:39.737Z,12.85
2019-02-27T09:51:11.430Z,14.28
2019-02-27T09:53:43.136Z,12.05
2019-02-27T09:56:15.198Z,14.45
2019-02-27T09:58:47.280Z,15.65
2019-02-27T10:01:19.491Z,13.40
2019-02-27T10:03:52.097Z,13.50
2019-02-27T10:06:26.189Z,15.05
2019-02-27T10:08:59.040Z,14.63
2019-02-27T10:11:31.263Z,13.20
2019-02-27T10:14:02.930Z,15.60
2019-02-27T10:16:35.350Z,19.10
2019-02-27T10:19:07.216Z,18.23
2019-02-27T10:21:38.989Z,19.70
2019-02-27T10:24:10.700Z,16.32
2019-02-27T10:26:42.570Z,16.87
2019-02-27T10:29:15.579Z,17.35
2019-02-27T10:31:47.376Z,17.48
2019-02-27T10:34:19.157Z,18.70
2019-02-27T10:36:50.947Z,22.42
2019-02-27T10:39:22.735Z,13.90
2019-02-27T10:41:54.523Z,15.63
2019-02-27T10:44:26.226Z,14.05
2019-02-27T10:47:00.059Z,18.52
2019-02-27T10:49:31.323Z,18.60
2019-02-27T10:52:03.047Z,19.20
2019-02-27T10:54:37.027Z,19.73
2019-02-27T10:57:08.243Z,19.67
2019-02-27T10:59:40.003Z,18.10
2019-02-27T11:02:12.501Z,17.60
2019-02-27T11:04:45.128Z,18.55
2019-02-27T11:07:16.976Z,16.35
2019-02-27T11:09:48.670Z,15.98
2019-02-27T11:12:20.395Z,19.17
2019-02-27T11:14:52.086Z,17.23
2019-02-27T11:17:23.771Z,18.32
2019-02-27T11:19:55.489Z,19.20
2019-02-27T11:22:31.647Z,21.15
2019-02-27T11:25:00.619Z,21.25
2019-02-27T11:27:32.279Z,23.32
2019-02-27T11:30:04.264Z,20.55
2019-02-27T11:32:35.977Z,24.20
2019-02-27T11:35:07.875Z,22.62
2019-02-27T11:37:39.627Z,20.57
2019-02-27T11:40:14.009Z,22.25
2019-02-27T11:42:45.725Z,21.50
2019-02-27T11:45:17.841Z,21.15
2019-02-27T11:47:49.542Z,21.93
2019-02-27T11:50:21.366Z,20.15
2019-02-27T11:52:54.745Z,26.25
2019-02-27T11:55:26.537Z,23.55
2019-02-27T11:57:58.339Z,25.68
2019-02-27T12:00:30.163Z,30.80
2019-02-27T12:03:01.846Z,21.95
2019-02-27T12:05:34.408Z,23.35
2019-02-27T12:08:06.573Z,21.95
2019-02-27T12:10:38.310Z,25.10
2019-02-27T12:13:10.033Z,27.15
2019-02-27T12:15:43.591Z,28.10
2019-02-27T12:18:15.126Z,27.17
2019-02-27T12:20:46.848Z,26.45
2019-02-27T12:23:18.576Z,27.30
2019-02-27T12:25:50.328Z,23.18
2019-02-27T12:28:22.100Z,26.62
2019-02-27T12:30:53.821Z,27.07
2019-02-27T12:33:29.195Z,30.05
2019-02-27T12:35:59.089Z,29.82
2019-02-27T12:38:30.856Z,28.62
2019-02-27T12:41:02.872Z,30.15
2019-02-27T12:43:34.573Z,29.05
2019-02-27T12:46:06.358Z,29.80
2019-02-27T12:48:38.061Z,26.30
2019-02-27T12:51:09.842Z,26.33
2019-02-27T12:53:42.440Z,25.82
2019-02-27T12:56:14.377Z,30.72
2019-02-27T12:58:46.042Z,27.75
2019-02-27T13:01:17.806Z,25.80
2019-02-27T13:03:49.502Z,25.37
2019-02-27T13:06:21.328Z,26.30
2019-02-27T13:08:53.474Z,23.18
2019-02-27T13:11:25.331Z,25.02
2019-02-27T13:13:57.205Z,25.20
2019-02-27T13:16:30.443Z,28.00
2019-02-27T13:19:06.275Z,29.00
2019-02-27T13:21:35.575Z,25.77
2019-02-27T13:24:07.355Z,30.77
2019-02-27T13:26:39.055Z,26.23
2019-02-27T13:29:10.743Z,29.02
2019-02-27T13:31:42.561Z,30.52
2019-02-27T13:34:14.565Z,28.23
2019-02-27T13:36:46.924Z,28.45
2019-02-27T13:39:18.595Z,32.53
2019-02-27T13:41:50.767Z,30.40
2019-02-27T13:44:22.959Z,25.82
2019-02-27T13:46:56.973Z,27.20
2019-02-27T13:49:28.146Z,31.70
2019-02-27T13:51:59.985Z,30.32
2019-02-27T13:54:34.660Z,28.07
2019-02-27T13:57:05.127Z,29.02
2019-02-27T13:59:36.875Z,31.82
2019-02-27T14:02:08.593Z,25.92
2019-02-27T14:04:41.199Z,26.77
2019-02-27T14:07:12.912Z,32.05
2019-02-27T14:09:44.747Z,27.70
2019-02-27T14:12:16.477Z,31.70
2019-02-27T14:14:50.216Z,28.27
2019-02-27T14:17:21.635Z,30.15
2019-02-27T14:19:55.244Z,29.02
2019-02-27T14:22:26.790Z,32.70
2019-02-27T14:24:58.472Z,24.37
2019-02-27T14:27:30.248Z,32.85
2019-02-27T14:30:03.787Z,27.98
2019-02-27T14:32:35.373Z,29.02
2019-02-27T14:35:07.103Z,30.62
2019-02-27T14:37:38.889Z,31.10
2019-02-27T14:40:13.098Z,32.17
2019-02-27T14:42:44.951Z,29.50
2019-02-27T14:45:18.861Z,28.15
2019-02-27T14:47:50.582Z,35.50
2019-02-27T14:50:22.767Z,33.20
2019-02-27T14:52:54.561Z,28.23
2019-02-27T14:55:26.248Z,31.12
2019-02-27T14:57:58.090Z,27.90
2019-02-27T15:00:30.749Z,32.85
2019-02-27T15:03:02.688Z,32.25
2019-02-27T15:05:36.523Z,29.27
2019-02-27T15:08:07.949Z,36.17
2019-02-27T15:10:41.085Z,35.88
2019-02-27T15:13:13.218Z,36.55
2019-02-27T15:15:44.984Z,35.90
2019-02-27T15:18:16.753Z,31.35
2019-02-27T15:20:48.449Z,32.75
2019-02-27T15:23:20.138Z,32.40
2019-02-27T15:25:51.841Z,34.35
2019-02-27T15:28:23.535Z,28.90
2019-02-27T15:30:55.216Z,35.15
2019-02-27T15:33:26.880Z,35.92
2019-02-27T15:35:58.652Z,31.77
2019-02-27T15:38:31.437Z,35.78
2019-02-27T15:41:03.387Z,30.68
2019-02-27T15:43:35.303Z,34.03
2019-02-27T15:46:07.027Z,28.73
2019-02-27T15:48:40.949Z,29.80
2019-02-27T15:51:12.138Z,36.13
2019-02-27T15:53:49.627Z,33.53
2019-02-27T15:56:17.300Z,35.78
2019-02-27T15:58:48.980Z,33.53
2019-02-27T16:01:20.770Z,32.88
2019-02-27T16:03:52.551Z,33.70
2019-02-27T16:06:25.601Z,36.75
2019-02-27T16:08:58.285Z,31.70
2019-02-27T16:11:30.277Z,34.35
2019-02-27T16:14:01.975Z,31.87
2019-02-27T16:16:33.692Z,29.98
2019-02-27T16:19:07.957Z,30.55
2019-02-27T16:21:38.849Z,32.80
2019-02-27T16:24:10.578Z,29.05
2019-02-27T16:26:42.460Z,32.58
2019-02-27T16:29:14.191Z,31.37
2019-02-27T16:31:45.920Z,34.15
2019-02-27T16:34:17.676Z,28.70
2019-02-27T16:36:49.432Z,29.48
2019-02-27T16:39:21.213Z,32.75
2019-02-27T16:41:54.183Z,34.03
2019-02-27T16:44:25.961Z,28.07
2019-02-27T16:46:58.800Z,37.53
2019-02-27T16:49:30.711Z,29.60
2019-02-27T16:52:02.416Z,41.40
2019-02-27T16:54:34.215Z,35.95
2019-02-27T16:57:05.916Z,35.23
2019-02-27T16:59:37.704Z,35.40
2019-02-27T17:02:09.393Z,35.68
2019-02-27T17:04:42.743Z,32.33
2019-02-27T17:07:14.624Z,35.98
2019-02-27T17:09:46.348Z,38.00
2019-02-27T17:12:18.130Z,36.13
2019-02-27T17:14:49.928Z,33.60
2019-02-27T17:17:21.644Z,43.68
2019-02-27T17:19:53.416Z,39.90
2019-02-27T17:22:25.125Z,36.70
2019-02-27T17:24:56.833Z,36.03
2019-02-27T17:27:28.607Z,36.93
2019-02-27T17:30:02.615Z,49.33
2019-02-27T17:32:34.339Z,36.58
2019-02-27T17:35:06.233Z,45.45
2019-02-27T17:37:40.016Z,61.33
2019-02-27T17:40:11.695Z,65.87
2019-02-27T17:42:43.395Z,50.08
2019-02-27T17:45:16.799Z,46.73
2019-02-27T17:47:48.604Z,45.67
2019-02-27T17:50:20.385Z,50.52
2019-02-27T17:52:52.104Z,49.20
2019-02-27T17:55:23.794Z,40.78
2019-02-27T17:57:58.459Z,48.38
2019-02-27T18:00:36.808Z,53.33
2019-02-27T18:03:08.565Z,39.88
2019-02-27T18:05:40.275Z,48.40
2019-02-27T18:08:15.898Z,45.10
2019-02-27T18:10:46.055Z,44.03
2019-02-27T18:13:17.830Z,50.35
2019-02-27T18:15:49.526Z,44.40
2019-02-27T18:18:21.318Z,48.55
2019-02-27T18:20:53.038Z,44.30
2019-02-27T18:23:25.351Z,48.53
2019-02-27T18:25:57.200Z,48.45
2019-02-27T18:28:32.660Z,46.45
2019-02-27T18:31:02.918Z,46.45
2019-02-27T18:33:34.691Z,45.60
2019-02-27T18:36:07.918Z,46.85
2019-02-27T18:38:39.686Z,45.63
2019-02-27T18:41:14.499Z,47.30
2019-02-27T18:43:44.879Z,50.63
2019-02-27T18:46:16.673Z,50.00
2019-02-27T18:48:48.469Z,52.05
2019-02-27T18:51:20.193Z,55.00
2019-02-27T18:53:51.876Z,47.83
2019-02-27T18:56:23.594Z,53.03
2019-02-27T18:58:55.476Z,47.62
2019-02-27T19:01:28.144Z,57.35
2019-02-27T19:04:01.201Z,51.17
2019-02-27T19:06:33.186Z,51.05
2019-02-27T19:09:06.995Z,48.70
2019-02-27T19:11:38.793Z,48.07
2019-02-27T19:14:10.613Z,54.07
2019-02-27T19:16:42.669Z,55.20
2019-02-27T19:19:14.753Z,47.87
2019-02-27T19:21:49.784Z,50.67
2019-02-27T19:24:26.707Z,53.47
2019-02-27T19:26:55.016Z,56.20
2019-02-27T19:29:26.737Z,48.47
2019-02-27T19:31:58.416Z,71.53
2019-02-27T19:34:30.165Z,72.70
2019-02-27T19:37:02.530Z,61.83
2019-02-27T19:39:35.249Z,60.83
2019-02-27T19:42:07.015Z,70.53
2019-02-27T19:44:38.737Z,85.60
2019-02-27T19:47:10.613Z,63.97
2019-02-27T19:49:42.461Z,72.67
2019-02-27T19:52:14.307Z,61.43
2019-02-27T19:54:46.111Z,67.70
2019-02-27T19:57:17.899Z,63.20
2019-02-27T19:59:49.918Z,65.90
2019-02-27T20:02:22.226Z,63.00
2019-02-27T20:04:54.133Z,65.27
2019-02-27T20:07:25.875Z,63.60
2019-02-27T20:09:57.586Z,55.03
2019-02-27T20:12:29.316Z,54.63
2019-02-27T20:15:01.062Z,63.00
2019-02-27T20:17:33.113Z,70.60
2019-02-27T20:20:05.400Z,59.40
2019-02-27T20:22:37.163Z,57.47
2019-02-27T20:25:11.619Z,63.33
2019-02-27T20:27:49.002Z,63.03
2019-02-27T20:30:21.355Z,65.43
2019-02-27T20:32:53.350Z,73.20
2019-02-27T20:35:25.068Z,72.27
2019-02-27T20:37:56.896Z,68.77
2019-02-27T20:40:33.696Z,66.97
2019-02-27T20:43:02.639Z,67.13
2019-02-27T20:45:34.465Z,69.70
2019-02-27T20:48:06.330Z,66.73
2019-02-27T20:50:40.340Z,79.33
2019-02-27T20:53:12.408Z,58.00
2019-02-27T20:55:44.139Z,66.43
2019-02-27T20:58:16.729Z,66.33
2019-02-27T21:00:49.191Z,63.93
2019-02-27T21:03:20.961Z,63.13
2019-02-27T21:05:52.794Z,68.53
2019-02-27T21:08:24.592Z,63.40
2019-02-27T21:10:56.452Z,72.60
2019-02-27T21:13:28.278Z,74.67
2019-02-27T21:15:59.997Z,65.07
2019-02-27T21:18:32.627Z,64.67
2019-02-27T21:21:05.010Z,61.73
2019-02-27T21:23:36.778Z,60.73
2019-02-27T21:26:08.553Z,69.87
2019-02-27T21:28:40.301Z,60.67
2019-02-27T21:31:12.007Z,72.53
2019-02-27T21:33:45.642Z,64.73
2019-02-27T21:36:17.049Z,65.97
2019-02-27T21:38:50.361Z,60.77
2019-02-27T21:41:22.131Z,51.20
2019-02-27T21:43:56.592Z,69.80
2019-02-27T21:46:27.198Z,68.37
2019-02-27T21:48:59.358Z,66.23
2019-02-27T21:51:31.161Z,70.73
2019-02-27T21:54:04.663Z,74.20
2019-02-27T21:56:36.555Z,67.60
2019-02-27T21:59:08.283Z,65.73
2019-02-27T22:01:40.005Z,63.60
2019-02-27T22:04:11.780Z,56.87
2019-02-27T22:06:43.481Z,55.53
2019-02-27T22:09:15.177Z,57.17
2019-02-27T22:11:46.957Z,59.07
2019-02-27T22:14:18.694Z,58.60
2019-02-27T22:16:50.481Z,56.13
2019-02-27T22:19:22.499Z,56.03
2019-02-27T22:21:54.187Z,61.40
2019-02-27T22:24:25.951Z,54.80
2019-02-27T22:26:57.652Z,54.20
2019-02-27T22:29:29.453Z,59.20
2019-02-27T22:32:01.185Z,60.37
2019-02-27T22:34:33.009Z,67.17
2019-02-27T22:37:04.737Z,62.03
2019-02-27T22:39:36.521Z,67.57
2019-02-27T22:42:08.208Z,60.87
2019-02-27T22:44:39.913Z,51.97
2019-02-27T22:47:11.663Z,62.43
2019-02-27T22:49:43.365Z,59.73
2019-02-27T22:52:15.033Z,62.57
2019-02-27T22:54:46.745Z,59.07
2019-02-27T22:57:18.542Z,62.93
2019-02-27T22:59:50.232Z,56.00
2019-02-27T23:02:23.155Z,61.83
2019-02-27T23:04:54.943Z,63.23
2019-02-27T23:07:28.040Z,42.53
2019-02-27T23:10:00.292Z,63.77
2019-02-27T23:12:32.037Z,65.73
2019-02-27T23:15:03.820Z,58.50
2019-02-27T23:17:35.514Z,66.80
2019-02-27T23:20:07.671Z,51.87
2019-02-27T23:22:39.358Z,57.03
2019-02-27T23:25:11.089Z,58.13
2019-02-27T23:27:42.835Z,51.73
2019-02-27T23:30:15.889Z,61.73
2019-02-27T23:32:47.954Z,46.57
2019-02-27T23:35:19.637Z,48.73
2019-02-27T23:37:52.414Z,59.33
2019-02-27T23:40:24.098Z,62.20
2019-02-27T23:42:55.774Z,52.30
2019-02-27T23:45:27.434Z,62.23
2019-02-27T23:48:01.886Z,62.30
2019-02-27T23:50:32.558Z,48.03
2019-02-27T23:53:04.240Z,50.33
2019-02-27T23:55:35.920Z,33.60
2019-02-27T23:58:07.583Z,55.13
